createdAt,value
2019-05-07T05:34:18.460Z,98853.00
2019-05-07T05:37:04.367Z,98847.00
2019-05-07T05:39:42.801Z,98851.00
2019-05-07T05:42:22.535Z,98849.00
2019-05-07T05:44:58.570Z,98847.00
2019-05-07T05:47:38.400Z,98821.00
2019-05-07T05:50:14.850Z,98834.00
2019-05-07T05:52:58.243Z,98833.00
2019-05-07T05:55:52.705Z,98829.00
2019-05-07T05:58:32.631Z,98830.00
2019-05-07T06:01:25.363Z,98828.00
2019-05-07T06:04:16.073Z,98817.00
2019-05-07T06:08:03.688Z,98814.00
2019-05-07T06:10:47.522Z,98812.00
2019-05-07T06:13:28.180Z,98810.00
2019-05-07T06:16:12.543Z,98802.00
2019-05-07T06:18:52.432Z,98809.00
2019-05-07T06:21:41.880Z,98796.00
2019-05-07T06:24:18.223Z,98797.00
2019-05-07T06:26:52.961Z,98809.00
2019-05-07T06:29:28.289Z,98798.00
2019-05-07T06:32:06.460Z,98782.00
2019-05-07T06:34:44.269Z,98796.00
2019-05-07T06:37:16.166Z,98798.00
2019-05-07T06:39:53.016Z,98785.00
2019-05-07T06:42:52.721Z,98787.00
2019-05-07T06:45:36.875Z,98774.00
2019-05-07T06:48:12.586Z,98782.00
2019-05-07T06:51:03.250Z,98783.00
2019-05-07T06:54:36.268Z,98794.00
2019-05-07T06:58:05.377Z,98782.00
2019-05-07T07:00:42.239Z,98791.00
2019-05-07T07:03:24.577Z,98782.00
2019-05-07T07:06:05.522Z,98775.00
2019-05-07T07:08:43.173Z,98773.00
2019-05-07T07:11:22.302Z,98769.00
2019-05-07T07:13:55.686Z,98787.00
2019-05-07T07:16:29.584Z,98778.00
2019-05-07T07:19:04.194Z,98774.00
2019-05-07T07:21:42.196Z,98770.00
2019-05-07T07:24:22.908Z,98777.00
2019-05-07T07:26:56.442Z,98767.00
2019-05-07T07:29:32.458Z,98759.00
2019-05-07T07:32:13.334Z,98754.00
2019-05-07T07:34:53.312Z,98753.00
2019-05-07T07:37:27.207Z,98762.00
2019-05-07T07:42:34.193Z,98759.00
2019-05-07T07:45:22.915Z,98759.00
2019-05-07T07:47:57.226Z,98772.00
2019-05-07T07:50:33.024Z,98776.00
2019-05-07T07:53:14.879Z,98792.00
2019-05-07T07:56:17.108Z,98781.00
2019-05-07T07:58:54.724Z,98777.00
2019-05-07T08:01:46.092Z,98773.00
2019-05-07T08:04:19.866Z,98779.00
2019-05-07T08:07:08.454Z,98776.00
2019-05-07T08:09:45.749Z,98769.00
2019-05-07T08:12:18.371Z,98765.00
2019-05-07T08:14:51.905Z,98755.00
2019-05-07T08:17:25.933Z,98752.00
2019-05-07T08:20:02.555Z,98753.00
2019-05-07T08:22:49.369Z,98758.00
2019-05-07T08:25:52.648Z,98761.00
2019-05-07T08:28:29.189Z,98759.00
2019-05-07T08:31:16.097Z,98763.00
2019-05-07T08:33:56.098Z,98758.00
2019-05-07T08:36:34.778Z,98760.00
2019-05-07T08:39:13.033Z,98760.00
2019-05-07T08:42:54.096Z,98754.00
2019-05-07T08:45:55.511Z,98750.00
2019-05-07T08:48:36.858Z,98754.00
2019-05-07T08:51:11.916Z,98761.00
2019-05-07T08:53:54.308Z,98759.00
2019-05-07T08:56:35.034Z,98758.00
2019-05-07T08:59:13.492Z,98764.00
2019-05-07T09:01:48.952Z,98769.00
2019-05-07T09:04:25.860Z,98771.00
2019-05-07T09:07:02.797Z,98769.00
2019-05-07T09:09:43.897Z,98766.00
2019-05-07T09:12:17.877Z,98770.00
2019-05-07T09:14:53.138Z,98769.00
2019-05-07T09:17:26.561Z,98762.00
2019-05-07T09:19:58.942Z,98762.00
2019-05-07T09:22:43.303Z,98756.00
2019-05-07T09:25:17.052Z,98768.00
2019-05-07T09:27:59.233Z,98761.00
2019-05-07T09:30:57.458Z,98759.00
2019-05-07T09:33:37.500Z,98754.00
2019-05-07T09:36:12.211Z,98744.00
2019-05-07T09:38:58.372Z,98749.00
2019-05-07T09:41:48.456Z,98756.00
2019-05-07T09:44:23.694Z,98744.00
2019-05-07T09:50:01.050Z,98740.00
2019-05-07T09:52:45.582Z,98735.00
2019-05-07T09:55:27.996Z,98723.00
2019-05-07T09:58:02.395Z,98737.00
2019-05-07T10:00:42.386Z,98737.00
2019-05-07T10:03:25.726Z,98739.00
2019-05-07T10:06:03.390Z,98742.00
2019-05-07T10:08:41.906Z,98753.00
2019-05-07T10:11:22.450Z,98751.00
2019-05-07T10:14:12.481Z,98743.00
2019-05-07T10:16:52.545Z,98755.00
2019-05-07T10:19:32.462Z,98745.00
2019-05-07T10:22:08.582Z,98751.00
2019-05-07T10:25:05.059Z,98753.00
2019-05-07T10:27:41.922Z,98760.00
2019-05-07T10:30:21.858Z,98750.00
2019-05-07T10:33:01.789Z,98744.00
2019-05-07T10:35:43.978Z,98745.00
2019-05-07T10:38:18.206Z,98730.00
2019-05-07T10:41:09.376Z,98735.00
2019-05-07T10:43:46.453Z,98720.00
2019-05-07T10:46:24.646Z,98712.00
2019-05-07T10:49:06.651Z,98693.00
2019-05-07T10:51:42.413Z,98686.00
2019-05-07T10:54:25.517Z,98684.00
2019-05-07T10:56:59.800Z,98685.00
2019-05-07T10:59:32.619Z,98684.00
2019-05-07T11:02:12.601Z,98682.00
2019-05-07T11:04:47.839Z,98679.00
2019-05-07T11:09:56.660Z,98672.00
2019-05-07T11:12:33.042Z,98673.00
2019-05-07T11:15:17.305Z,98669.00
2019-05-07T11:18:02.683Z,98660.00
2019-05-07T11:20:49.874Z,98671.00
2019-05-07T11:23:18.474Z,98671.00
2019-05-07T11:25:54.804Z,98679.00
2019-05-07T11:28:29.014Z,98678.00
2019-05-07T11:31:06.539Z,98695.00
2019-05-07T11:33:41.942Z,98681.00
2019-05-07T11:36:20.663Z,98688.00
2019-05-07T11:38:54.913Z,98677.00
2019-05-07T11:41:51.791Z,98667.00
2019-05-07T11:44:32.118Z,98679.00
2019-05-07T11:47:13.030Z,98674.00
2019-05-07T11:50:06.616Z,98670.00
2019-05-07T11:58:12.986Z,98665.00
2019-05-07T12:00:46.180Z,98670.00
2019-05-07T12:03:25.328Z,98653.00
2019-05-07T12:06:04.574Z,98669.00
2019-05-07T12:08:49.752Z,98663.00
2019-05-07T12:11:23.542Z,98634.00
2019-05-07T12:14:05.148Z,98631.00
2019-05-07T12:16:44.677Z,98618.00
2019-05-07T12:19:35.493Z,98621.00
2019-05-07T12:22:09.226Z,98612.00
2019-05-07T12:24:45.677Z,98614.00
2019-05-07T12:27:23.058Z,98610.00
2019-05-07T12:30:01.745Z,98595.00
2019-05-07T12:34:43.482Z,98599.00
2019-05-07T12:37:18.689Z,98582.00
2019-05-07T12:39:54.285Z,98571.00
2019-05-07T12:42:38.065Z,98575.00
2019-05-07T12:46:52.444Z,98585.00
2019-05-07T12:50:18.056Z,98598.00
2019-05-07T12:53:03.690Z,98588.00
2019-05-07T12:59:07.295Z,98605.00
2019-05-07T13:04:22.249Z,98571.00
2019-05-07T13:07:02.806Z,98565.00
2019-05-07T13:09:40.047Z,98572.00
2019-05-07T13:12:13.612Z,98583.00
2019-05-07T13:14:52.216Z,98574.00
2019-05-07T13:17:30.173Z,98571.00
2019-05-07T13:20:14.333Z,98573.00
2019-05-07T13:29:02.358Z,98556.00
2019-05-07T13:31:38.252Z,98537.00
2019-05-07T13:34:14.012Z,98552.00
2019-05-07T13:36:51.640Z,98558.00
2019-05-07T13:39:27.481Z,98554.00
2019-05-07T13:42:08.019Z,98555.00
2019-05-07T13:45:15.882Z,98553.00
2019-05-07T13:47:56.679Z,98545.00
2019-05-07T13:50:32.724Z,98528.00
2019-05-07T13:53:22.834Z,98518.00
2019-05-07T13:56:03.913Z,98519.00
2019-05-07T13:58:42.865Z,98510.00
2019-05-07T14:01:35.580Z,98518.00
2019-05-07T14:04:09.317Z,98521.00
2019-05-07T14:06:43.263Z,98524.00
2019-05-07T14:09:32.637Z,98510.00
2019-05-07T14:12:08.034Z,98496.00
2019-05-07T14:14:53.007Z,98509.00
2019-05-07T14:17:29.151Z,98512.00
2019-05-07T14:20:08.166Z,98509.00
2019-05-07T14:22:59.052Z,98509.00
2019-05-07T14:25:32.532Z,98521.00
2019-05-07T14:28:08.136Z,98518.00
2019-05-07T14:30:42.665Z,98521.00
2019-05-07T14:33:22.708Z,98517.00
2019-05-07T14:36:05.387Z,98528.00
2019-05-07T14:38:53.754Z,98521.00
2019-05-07T14:41:32.595Z,98513.00
2019-05-07T14:44:22.209Z,98503.00
2019-05-07T14:47:16.567Z,98465.00
2019-05-07T14:49:57.750Z,98474.00
2019-05-07T14:52:44.170Z,98484.00
2019-05-07T14:55:22.134Z,98487.00
2019-05-07T14:58:02.300Z,98478.00
2019-05-07T15:00:39.667Z,98481.00
2019-05-07T15:03:13.916Z,98480.00
2019-05-07T15:05:48.834Z,98481.00
2019-05-07T15:11:19.690Z,98478.00
2019-05-07T15:16:47.483Z,98477.00
2019-05-07T15:19:32.115Z,98502.00
2019-05-07T15:22:08.068Z,98498.00
2019-05-07T15:24:42.773Z,98477.00
2019-05-07T15:27:22.799Z,98481.00
2019-05-07T15:30:17.759Z,98479.00
2019-05-07T15:33:02.251Z,98493.00
2019-05-07T15:35:35.579Z,98492.00
2019-05-07T15:38:12.057Z,98500.00
2019-05-07T15:40:44.844Z,98504.00
2019-05-07T15:43:18.868Z,98495.00
2019-05-07T15:45:52.436Z,98490.00
2019-05-07T15:48:35.041Z,98495.00
2019-05-07T15:51:11.864Z,98497.00
2019-05-07T15:53:52.164Z,98490.00
2019-05-07T15:56:24.711Z,98493.00
2019-05-07T15:59:14.418Z,98468.00
2019-05-07T16:01:52.102Z,98469.00
2019-05-07T16:07:45.149Z,98458.00
2019-05-07T16:10:17.789Z,98444.00
2019-05-07T16:13:06.241Z,98441.00
2019-05-07T16:15:38.977Z,98431.00
2019-05-07T16:18:14.010Z,98441.00
2019-05-07T16:20:52.269Z,98455.00
2019-05-07T16:23:27.674Z,98450.00
2019-05-07T16:29:04.709Z,98458.00
2019-05-07T16:31:44.178Z,98453.00
2019-05-07T16:34:22.019Z,98448.00
2019-05-07T16:36:57.405Z,98450.00
2019-05-07T16:39:42.183Z,98439.00
2019-05-07T16:42:17.837Z,98439.00
2019-05-07T16:44:52.335Z,98432.00
2019-05-07T16:47:35.200Z,98437.00
2019-05-07T16:50:16.062Z,98432.00
2019-05-07T16:52:53.012Z,98418.00
2019-05-07T16:55:29.884Z,98422.00
2019-05-07T16:58:09.521Z,98428.00
2019-05-07T17:00:45.375Z,98432.00
2019-05-07T17:03:25.468Z,98438.00
2019-05-07T17:05:58.562Z,98442.00
2019-05-07T17:08:43.679Z,98442.00
2019-05-07T17:11:18.781Z,98448.00
2019-05-07T17:13:51.982Z,98449.00
2019-05-07T17:16:31.757Z,98452.00
2019-05-07T17:21:52.072Z,98453.00
2019-05-07T17:24:27.319Z,98446.00
2019-05-07T17:27:24.982Z,98439.00
2019-05-07T17:30:04.048Z,98448.00
2019-05-07T17:32:36.922Z,98447.00
2019-05-07T17:35:14.951Z,98448.00
2019-05-07T17:40:25.102Z,98468.00
2019-05-07T17:43:05.465Z,98456.00
2019-05-07T17:45:43.571Z,98462.00
2019-05-07T17:48:15.926Z,98472.00
2019-05-07T17:51:08.869Z,98475.00
2019-05-07T17:54:16.019Z,98473.00
2019-05-07T17:56:52.666Z,98471.00
2019-05-07T17:59:34.144Z,98474.00
2019-05-07T18:02:10.220Z,98485.00
2019-05-07T18:04:50.927Z,98480.00
2019-05-07T18:07:22.339Z,98479.00
2019-05-07T18:10:06.511Z,98481.00
2019-05-07T18:12:44.142Z,98481.00
2019-05-07T18:15:17.403Z,98474.00
2019-05-07T18:18:02.869Z,98480.00
2019-05-07T18:20:43.350Z,98477.00
2019-05-07T18:23:24.147Z,98486.00
2019-05-07T18:26:05.638Z,98477.00
2019-05-07T18:28:43.236Z,98484.00
2019-05-07T18:31:17.113Z,98488.00
2019-05-07T18:33:59.346Z,98493.00
2019-05-07T18:36:42.360Z,98502.00
2019-05-07T18:39:20.233Z,98506.00
2019-05-07T18:41:52.265Z,98494.00
2019-05-07T18:45:04.833Z,98499.00
2019-05-07T18:47:44.461Z,98500.00
2019-05-07T18:50:17.251Z,98516.00
2019-05-07T18:52:57.403Z,98512.00
2019-05-07T19:09:01.085Z,98507.00
2019-05-07T19:14:23.128Z,98522.00
2019-05-07T19:17:07.075Z,98515.00
2019-05-07T19:19:52.494Z,98519.00
2019-05-07T19:22:53.584Z,98526.00
2019-05-07T19:25:45.178Z,98538.00
2019-05-07T19:28:25.688Z,98534.00
2019-05-07T19:31:12.496Z,98528.00
2019-05-07T19:33:49.502Z,98535.00
2019-05-07T19:36:38.432Z,98543.00
2019-05-07T19:39:13.500Z,98537.00
2019-05-07T19:41:54.450Z,98530.00
2019-05-07T19:44:30.375Z,98545.00
2019-05-07T19:47:08.143Z,98535.00
2019-05-07T19:50:41.942Z,98541.00
2019-05-07T19:53:23.733Z,98544.00
2019-05-07T20:01:24.747Z,98538.00
2019-05-07T20:06:59.079Z,98536.00
2019-05-07T20:09:37.563Z,98530.00
2019-05-07T20:12:17.389Z,98536.00
2019-05-07T20:14:59.620Z,98539.00
2019-05-07T20:17:37.946Z,98529.00
2019-05-07T20:23:18.705Z,98515.00
2019-05-07T20:25:56.871Z,98513.00
2019-05-07T20:28:57.246Z,98516.00
2019-05-07T20:31:42.337Z,98515.00
2019-05-07T20:34:22.016Z,98510.00
2019-05-07T20:37:06.329Z,98513.00
2019-05-07T20:39:42.220Z,98509.00
2019-05-07T20:42:18.186Z,98516.00
2019-05-07T20:45:02.846Z,98508.00
2019-05-07T20:47:36.434Z,98513.00
2019-05-07T20:50:16.547Z,98520.00
2019-05-07T20:52:56.442Z,98509.00
2019-05-07T20:55:52.949Z,98515.00
2019-05-07T20:58:26.534Z,98503.00
2019-05-07T21:01:02.946Z,98497.00
2019-05-07T21:03:47.187Z,98503.00
2019-05-07T21:06:22.874Z,98498.00
2019-05-07T21:09:04.895Z,98501.00
2019-05-07T21:11:44.475Z,98495.00
2019-05-07T21:14:43.338Z,98500.00
2019-05-07T21:17:16.562Z,98491.00
2019-05-07T21:19:51.907Z,98468.00
2019-05-07T21:22:31.983Z,98459.00
2019-05-07T21:25:04.956Z,98456.00
2019-05-07T21:27:39.278Z,98451.00
2019-05-07T21:30:17.496Z,98466.00
2019-05-07T21:33:04.307Z,98442.00
2019-05-07T21:35:52.467Z,98449.00
2019-05-07T21:38:36.685Z,98451.00
2019-05-07T21:41:09.160Z,98450.00
2019-05-07T21:43:46.194Z,98446.00
2019-05-07T21:46:27.118Z,98445.00
2019-05-07T21:49:04.173Z,98443.00
2019-05-07T21:51:41.241Z,98428.00
2019-05-07T21:54:23.730Z,98438.00
2019-05-07T21:57:06.351Z,98418.00
2019-05-07T21:59:44.658Z,98426.00
2019-05-07T22:02:26.913Z,98418.00
2019-05-07T22:04:59.537Z,98412.00
2019-05-07T22:07:41.549Z,98410.00
2019-05-07T22:10:14.525Z,98411.00
2019-05-07T22:15:31.868Z,98403.00
2019-05-07T22:18:04.238Z,98406.00
2019-05-07T22:23:32.338Z,98402.00
2019-05-07T22:26:20.370Z,98401.00
2019-05-07T22:28:54.456Z,98399.00
2019-05-07T22:31:55.320Z,98384.00
2019-05-07T22:34:37.400Z,98378.00
2019-05-07T22:37:21.821Z,98377.00
2019-05-07T22:40:08.292Z,98384.00
2019-05-07T22:42:44.657Z,98372.00
2019-05-07T22:45:22.738Z,98373.00
2019-05-07T22:47:58.317Z,98376.00
2019-05-07T22:50:47.487Z,98370.00
2019-05-07T22:53:26.131Z,98361.00
2019-05-07T22:55:58.400Z,98356.00
2019-05-07T22:58:36.408Z,98340.00
2019-05-07T23:01:33.838Z,98336.00
2019-05-07T23:04:06.533Z,98328.00
2019-05-07T23:06:43.710Z,98334.00
2019-05-07T23:09:24.470Z,98318.00
2019-05-07T23:12:07.160Z,98324.00
2019-05-07T23:14:46.807Z,98318.00
2019-05-07T23:17:28.219Z,98310.00
2019-05-07T23:20:09.004Z,98295.00
2019-05-07T23:22:44.021Z,98300.00
2019-05-07T23:25:32.220Z,98286.00
2019-05-07T23:28:06.398Z,98284.00
2019-05-07T23:30:38.211Z,98286.00
2019-05-07T23:33:23.625Z,98284.00
2019-05-07T23:39:04.195Z,98280.00
2019-05-07T23:41:43.512Z,98270.00
2019-05-07T23:44:26.765Z,98268.00
2019-05-07T23:47:05.205Z,98268.00
2019-05-07T23:49:43.011Z,98285.00
2019-05-07T23:52:22.543Z,98271.00
2019-05-07T23:55:07.481Z,98263.00
2019-05-07T23:57:43.129Z,98260.00
